<?xml version="1.0" encoding="UTF-8" standalone="no" ?>
<gpx xmlns="http://www.topografix.com/GPX/1/1" xmlns:xsi="http://www.w3.org/2001/XMLSchema-instance" xsi:schemaLocation="http://www.topografix.com/GPX/1/1 http://www.topografix.com/GPX/1/1/gpx.xsd" version="1.1" creator="VisuGPX - https://www.visugpx.com">
  <metadata>
    <name>CHALO_SAINT_MARS_ST_HILAIRE</name>
    <desc><![CDATA[AVF Antony CHALO_SAINT_MARS_ST_HILAIRE]]></desc>
  </metadata>
  <trk>
    <name><![CDATA[ACTIVE LOG 005]]></name>
    <trkseg>
      <trkpt lat="48.44789" lon="2.06691">
        <ele>151.064209</ele>
        <time>2009-03-15T14:10:07Z</time>
      </trkpt>
      <trkpt lat="48.44791" lon="2.06692">
        <ele>50.125977</ele>
        <time>2009-03-15T14:10:08Z</time>
      </trkpt>
      <trkpt lat="48.44789" lon="2.06694">
        <ele>49.645264</ele>
        <time>2009-03-15T14:10:09Z</time>
      </trkpt>
      <trkpt lat="48.44785" lon="2.06693">
        <ele>49.164551</ele>
        <time>2009-03-15T14:10:10Z</time>
      </trkpt>
      <trkpt lat="48.4478" lon="2.06706">
        <ele>49.164551</ele>
        <time>2009-03-15T14:10:17Z</time>
      </trkpt>
      <trkpt lat="48.44778" lon="2.06718">
        <ele>49.164551</ele>
        <time>2009-03-15T14:10:24Z</time>
      </trkpt>
      <trkpt lat="48.44772" lon="2.06729">
        <ele>48.68396</ele>
        <time>2009-03-15T14:10:30Z</time>
      </trkpt>
      <trkpt lat="48.44769" lon="2.06738">
        <ele>48.203369</ele>
        <time>2009-03-15T14:10:35Z</time>
      </trkpt>
      <trkpt lat="48.44763" lon="2.06753">
        <ele>48.203369</ele>
        <time>2009-03-15T14:10:43Z</time>
      </trkpt>
      <trkpt lat="48.4476" lon="2.06766">
        <ele>48.203369</ele>
        <time>2009-03-15T14:10:48Z</time>
      </trkpt>
      <trkpt lat="48.44757" lon="2.06779">
        <ele>48.203369</ele>
        <time>2009-03-15T14:10:55Z</time>
      </trkpt>
      <trkpt lat="48.44752" lon="2.06801">
        <ele>47.722534</ele>
        <time>2009-03-15T14:11:03Z</time>
      </trkpt>
      <trkpt lat="48.44752" lon="2.06813">
        <ele>46.76123</ele>
        <time>2009-03-15T14:11:10Z</time>
      </trkpt>
      <trkpt lat="48.44751" lon="2.06831">
        <ele>46.28064</ele>
        <time>2009-03-15T14:11:23Z</time>
      </trkpt>
      <trkpt lat="48.4475" lon="2.06836">
        <ele>46.28064</ele>
        <time>2009-03-15T14:11:26Z</time>
      </trkpt>
      <trkpt lat="48.44745" lon="2.06849">
        <ele>45.799927</ele>
        <time>2009-03-15T14:11:34Z</time>
      </trkpt>
      <trkpt lat="48.44742" lon="2.06857">
        <ele>45.799927</ele>
        <time>2009-03-15T14:11:42Z</time>
      </trkpt>
      <trkpt lat="48.44741" lon="2.06863">
        <ele>44.358032</ele>
        <time>2009-03-15T14:11:45Z</time>
      </trkpt>
      <trkpt lat="48.44735" lon="2.06878">
        <ele>45.319214</ele>
        <time>2009-03-15T14:11:54Z</time>
      </trkpt>
      <trkpt lat="48.44731" lon="2.0689">
        <ele>44.358032</ele>
        <time>2009-03-15T14:12:03Z</time>
      </trkpt>
      <trkpt lat="48.44727" lon="2.06898">
        <ele>43.877319</ele>
        <time>2009-03-15T14:12:10Z</time>
      </trkpt>
      <trkpt lat="48.44726" lon="2.06905">
        <ele>43.396606</ele>
        <time>2009-03-15T14:12:14Z</time>
      </trkpt>
      <trkpt lat="48.44724" lon="2.06915">
        <ele>42.435425</ele>
        <time>2009-03-15T14:12:20Z</time>
      </trkpt>
      <trkpt lat="48.44722" lon="2.06928">
        <ele>41.473999</ele>
        <time>2009-03-15T14:12:28Z</time>
      </trkpt>
      <trkpt lat="48.44718" lon="2.06937">
        <ele>39.55127</ele>
        <time>2009-03-15T14:12:36Z</time>
      </trkpt>
      <trkpt lat="48.44716" lon="2.06952">
        <ele>38.109375</ele>
        <time>2009-03-15T14:12:44Z</time>
      </trkpt>
      <trkpt lat="48.44716" lon="2.06961">
        <ele>37.628662</ele>
        <time>2009-03-15T14:12:52Z</time>
      </trkpt>
      <trkpt lat="48.44713" lon="2.0696">
        <ele>37.628662</ele>
        <time>2009-03-15T14:13:07Z</time>
      </trkpt>
      <trkpt lat="48.44714" lon="2.06966">
        <ele>37.148071</ele>
        <time>2009-03-15T14:13:18Z</time>
      </trkpt>
      <trkpt lat="48.44712" lon="2.06972">
        <ele>36.66748</ele>
        <time>2009-03-15T14:13:33Z</time>
      </trkpt>
      <trkpt lat="48.44711" lon="2.06977">
        <ele>35.706055</ele>
        <time>2009-03-15T14:13:38Z</time>
      </trkpt>
      <trkpt lat="48.44712" lon="2.06988">
        <ele>35.225464</ele>
        <time>2009-03-15T14:13:44Z</time>
      </trkpt>
      <trkpt lat="48.44709" lon="2.06999">
        <ele>33.783447</ele>
        <time>2009-03-15T14:13:52Z</time>
      </trkpt>
      <trkpt lat="48.44709" lon="2.07001">
        <ele>33.783447</ele>
        <time>2009-03-15T14:13:53Z</time>
      </trkpt>
      <trkpt lat="48.4471" lon="2.07014">
        <ele>32.822266</ele>
        <time>2009-03-15T14:14:02Z</time>
      </trkpt>
      <trkpt lat="48.44706" lon="2.07028">
        <ele>32.341553</ele>
        <time>2009-03-15T14:14:13Z</time>
      </trkpt>
      <trkpt lat="48.44704" lon="2.07041">
        <ele>31.860718</ele>
        <time>2009-03-15T14:14:21Z</time>
      </trkpt>
      <trkpt lat="48.44702" lon="2.07053">
        <ele>31.860718</ele>
        <time>2009-03-15T14:14:29Z</time>
      </trkpt>
      <trkpt lat="48.447" lon="2.07056">
        <ele>32.341553</ele>
        <time>2009-03-15T14:14:32Z</time>
      </trkpt>
      <trkpt lat="48.44694" lon="2.0707">
        <ele>32.822266</ele>
        <time>2009-03-15T14:14:40Z</time>
      </trkpt>
      <trkpt lat="48.44689" lon="2.07078">
        <ele>32.822266</ele>
        <time>2009-03-15T14:14:45Z</time>
      </trkpt>
      <trkpt lat="48.44688" lon="2.0708">
        <ele>33.302856</ele>
        <time>2009-03-15T14:14:47Z</time>
      </trkpt>
      <trkpt lat="48.4468" lon="2.07087">
        <ele>33.783447</ele>
        <time>2009-03-15T14:14:54Z</time>
      </trkpt>
      <trkpt lat="48.44677" lon="2.07094">
        <ele>34.744873</ele>
        <time>2009-03-15T14:15:01Z</time>
      </trkpt>
      <trkpt lat="48.44673" lon="2.07103">
        <ele>34.744873</ele>
        <time>2009-03-15T14:15:08Z</time>
      </trkpt>
      <trkpt lat="48.44672" lon="2.0711">
        <ele>35.225464</ele>
        <time>2009-03-15T14:15:12Z</time>
      </trkpt>
      <trkpt lat="48.44671" lon="2.07115">
        <ele>35.706055</ele>
        <time>2009-03-15T14:15:14Z</time>
      </trkpt>
      <trkpt lat="48.44669" lon="2.07124">
        <ele>36.186768</ele>
        <time>2009-03-15T14:15:20Z</time>
      </trkpt>
      <trkpt lat="48.44668" lon="2.07129">
        <ele>36.66748</ele>
        <time>2009-03-15T14:15:24Z</time>
      </trkpt>
      <trkpt lat="48.44668" lon="2.0714">
        <ele>38.109375</ele>
        <time>2009-03-15T14:15:32Z</time>
      </trkpt>
      <trkpt lat="48.44666" lon="2.07154">
        <ele>39.070679</ele>
        <time>2009-03-15T14:15:42Z</time>
      </trkpt>
      <trkpt lat="48.44666" lon="2.07159">
        <ele>39.070679</ele>
        <time>2009-03-15T14:15:45Z</time>
      </trkpt>
      <trkpt lat="48.44666" lon="2.07163">
        <ele>39.55127</ele>
        <time>2009-03-15T14:15:48Z</time>
      </trkpt>
      <trkpt lat="48.44666" lon="2.07172">
        <ele>40.512817</ele>
        <time>2009-03-15T14:15:55Z</time>
      </trkpt>
      <trkpt lat="48.44666" lon="2.07173">
        <ele>40.032104</ele>
        <time>2009-03-15T14:15:57Z</time>
      </trkpt>
      <trkpt lat="48.44665" lon="2.07182">
        <ele>40.512817</ele>
        <time>2009-03-15T14:16:06Z</time>
      </trkpt>
      <trkpt lat="48.44663" lon="2.07191">
        <ele>40.993408</ele>
        <time>2009-03-15T14:16:14Z</time>
      </trkpt>
      <trkpt lat="48.44662" lon="2.07203">
        <ele>41.954712</ele>
        <time>2009-03-15T14:16:22Z</time>
      </trkpt>
      <trkpt lat="48.44659" lon="2.07212">
        <ele>42.435425</ele>
        <time>2009-03-15T14:16:28Z</time>
      </trkpt>
      <trkpt lat="48.44657" lon="2.07216">
        <ele>42.435425</ele>
        <time>2009-03-15T14:16:31Z</time>
      </trkpt>
      <trkpt lat="48.44656" lon="2.07218">
        <ele>42.916016</ele>
        <time>2009-03-15T14:16:33Z</time>
      </trkpt>
      <trkpt lat="48.44654" lon="2.07229">
        <ele>43.396606</ele>
        <time>2009-03-15T14:16:41Z</time>
      </trkpt>
      <trkpt lat="48.44651" lon="2.07239">
        <ele>44.358032</ele>
        <time>2009-03-15T14:16:51Z</time>
      </trkpt>
      <trkpt lat="48.44649" lon="2.07251">
        <ele>44.838623</ele>
        <time>2009-03-15T14:16:58Z</time>
      </trkpt>
      <trkpt lat="48.44645" lon="2.07263">
        <ele>45.319214</ele>
        <time>2009-03-15T14:17:06Z</time>
      </trkpt>
      <trkpt lat="48.44643" lon="2.07268">
        <ele>45.319214</ele>
        <time>2009-03-15T14:17:09Z</time>
      </trkpt>
      <trkpt lat="48.4464" lon="2.07282">
        <ele>45.319214</ele>
        <time>2009-03-15T14:17:16Z</time>
      </trkpt>
      <trkpt lat="48.44635" lon="2.07295">
        <ele>45.799927</ele>
        <time>2009-03-15T14:17:24Z</time>
      </trkpt>
      <trkpt lat="48.44633" lon="2.07304">
        <ele>46.76123</ele>
        <time>2009-03-15T14:17:30Z</time>
      </trkpt>
      <trkpt lat="48.44631" lon="2.07314">
        <ele>46.76123</ele>
        <time>2009-03-15T14:17:37Z</time>
      </trkpt>
      <trkpt lat="48.44628" lon="2.07331">
        <ele>47.241821</ele>
        <time>2009-03-15T14:17:48Z</time>
      </trkpt>
      <trkpt lat="48.44627" lon="2.07338">
        <ele>47.722534</ele>
        <time>2009-03-15T14:17:53Z</time>
      </trkpt>
      <trkpt lat="48.44626" lon="2.07354">
        <ele>47.722534</ele>
        <time>2009-03-15T14:17:59Z</time>
      </trkpt>
      <trkpt lat="48.44626" lon="2.0737">
        <ele>48.203369</ele>
        <time>2009-03-15T14:18:08Z</time>
      </trkpt>
      <trkpt lat="48.44626" lon="2.07372">
        <ele>48.203369</ele>
        <time>2009-03-15T14:18:09Z</time>
      </trkpt>
      <trkpt lat="48.44625" lon="2.07385">
        <ele>48.203369</ele>
        <time>2009-03-15T14:18:16Z</time>
      </trkpt>
      <trkpt lat="48.44622" lon="2.07406">
        <ele>48.68396</ele>
        <time>2009-03-15T14:18:26Z</time>
      </trkpt>
      <trkpt lat="48.44622" lon="2.07411">
        <ele>49.164551</ele>
        <time>2009-03-15T14:18:28Z</time>
      </trkpt>
      <trkpt lat="48.44621" lon="2.07427">
        <ele>48.68396</ele>
        <time>2009-03-15T14:18:36Z</time>
      </trkpt>
      <trkpt lat="48.44618" lon="2.07447">
        <ele>50.125977</ele>
        <time>2009-03-15T14:18:46Z</time>
      </trkpt>
      <trkpt lat="48.44619" lon="2.07459">
        <ele>49.164551</ele>
        <time>2009-03-15T14:18:53Z</time>
      </trkpt>
      <trkpt lat="48.44618" lon="2.07474">
        <ele>49.645264</ele>
        <time>2009-03-15T14:19:00Z</time>
      </trkpt>
      <trkpt lat="48.44618" lon="2.07491">
        <ele>49.164551</ele>
        <time>2009-03-15T14:19:08Z</time>
      </trkpt>
      <trkpt lat="48.44617" lon="2.07508">
        <ele>49.645264</ele>
        <time>2009-03-15T14:19:15Z</time>
      </trkpt>
      <trkpt lat="48.44617" lon="2.07514">
        <ele>49.645264</ele>
        <time>2009-03-15T14:19:18Z</time>
      </trkpt>
      <trkpt lat="48.44615" lon="2.07532">
        <ele>50.125977</ele>
        <time>2009-03-15T14:19:26Z</time>
      </trkpt>
      <trkpt lat="48.44615" lon="2.07534">
        <ele>50.125977</ele>
        <time>2009-03-15T14:19:27Z</time>
      </trkpt>
      <trkpt lat="48.44611" lon="2.07551">
        <ele>50.125977</ele>
        <time>2009-03-15T14:19:36Z</time>
      </trkpt>
      <trkpt lat="48.44611" lon="2.07557">
        <ele>50.125977</ele>
        <time>2009-03-15T14:19:39Z</time>
      </trkpt>
      <trkpt lat="48.44612" lon="2.07562">
        <ele>50.125977</ele>
        <time>2009-03-15T14:19:42Z</time>
      </trkpt>
      <trkpt lat="48.44611" lon="2.07568">
        <ele>50.606567</ele>
        <time>2009-03-15T14:19:46Z</time>
      </trkpt>
      <trkpt lat="48.44611" lon="2.07587">
        <ele>51.087158</ele>
        <time>2009-03-15T14:19:55Z</time>
      </trkpt>
      <trkpt lat="48.4461" lon="2.07598">
        <ele>50.125977</ele>
        <time>2009-03-15T14:20:03Z</time>
      </trkpt>
      <trkpt lat="48.44609" lon="2.07612">
        <ele>51.087158</ele>
        <time>2009-03-15T14:20:12Z</time>
      </trkpt>
      <trkpt lat="48.44607" lon="2.07617">
        <ele>51.087158</ele>
        <time>2009-03-15T14:20:23Z</time>
      </trkpt>
      <trkpt lat="48.44606" lon="2.0763">
        <ele>51.087158</ele>
        <time>2009-03-15T14:21:10Z</time>
      </trkpt>
      <trkpt lat="48.44605" lon="2.0763">
        <ele>51.087158</ele>
        <time>2009-03-15T14:21:11Z</time>
      </trkpt>
      <trkpt lat="48.44601" lon="2.07631">
        <ele>51.087158</ele>
        <time>2009-03-15T14:21:15Z</time>
      </trkpt>
      <trkpt lat="48.44597" lon="2.0763">
        <ele>51.087158</ele>
        <time>2009-03-15T14:21:18Z</time>
      </trkpt>
      <trkpt lat="48.44593" lon="2.07628">
        <ele>50.606567</ele>
        <time>2009-03-15T14:21:22Z</time>
      </trkpt>
      <trkpt lat="48.44586" lon="2.07626">
        <ele>50.125977</ele>
        <time>2009-03-15T14:21:27Z</time>
      </trkpt>
      <trkpt lat="48.44576" lon="2.07621">
        <ele>50.125977</ele>
        <time>2009-03-15T14:21:36Z</time>
      </trkpt>
      <trkpt lat="48.44568" lon="2.07619">
        <ele>50.606567</ele>
        <time>2009-03-15T14:21:42Z</time>
      </trkpt>
      <trkpt lat="48.4456" lon="2.0762">
        <ele>50.606567</ele>
        <time>2009-03-15T14:21:49Z</time>
      </trkpt>
      <trkpt lat="48.44551" lon="2.0762">
        <ele>50.125977</ele>
        <time>2009-03-15T14:21:57Z</time>
      </trkpt>
      <trkpt lat="48.44543" lon="2.07616">
        <ele>50.606567</ele>
        <time>2009-03-15T14:22:04Z</time>
      </trkpt>
      <trkpt lat="48.44534" lon="2.07615">
        <ele>51.087158</ele>
        <time>2009-03-15T14:22:12Z</time>
      </trkpt>
      <trkpt lat="48.44522" lon="2.07611">
        <ele>49.645264</ele>
        <time>2009-03-15T14:22:22Z</time>
      </trkpt>
      <trkpt lat="48.44513" lon="2.07609">
        <ele>51.087158</ele>
        <time>2009-03-15T14:22:29Z</time>
      </trkpt>
      <trkpt lat="48.44506" lon="2.07608">
        <ele>51.087158</ele>
        <time>2009-03-15T14:22:35Z</time>
      </trkpt>
      <trkpt lat="48.44505" lon="2.07608">
        <ele>50.125977</ele>
        <time>2009-03-15T14:22:37Z</time>
      </trkpt>
      <trkpt lat="48.44495" lon="2.07606">
        <ele>51.087158</ele>
        <time>2009-03-15T14:22:45Z</time>
      </trkpt>
      <trkpt lat="48.44494" lon="2.07607">
        <ele>51.087158</ele>
        <time>2009-03-15T14:22:46Z</time>
      </trkpt>
      <trkpt lat="48.44492" lon="2.07607">
        <ele>49.645264</ele>
        <time>2009-03-15T14:22:48Z</time>
      </trkpt>
      <trkpt lat="48.44485" lon="2.07602">
        <ele>51.087158</ele>
        <time>2009-03-15T14:22:54Z</time>
      </trkpt>
      <trkpt lat="48.44479" lon="2.07599">
        <ele>51.087158</ele>
        <time>2009-03-15T14:23:00Z</time>
      </trkpt>
      <trkpt lat="48.44469" lon="2.07594">
        <ele>51.087158</ele>
        <time>2009-03-15T14:23:10Z</time>
      </trkpt>
      <trkpt lat="48.44459" lon="2.07594">
        <ele>51.567871</ele>
        <time>2009-03-15T14:23:21Z</time>
      </trkpt>
      <trkpt lat="48.44457" lon="2.07594">
        <ele>51.567871</ele>
        <time>2009-03-15T14:23:22Z</time>
      </trkpt>
      <trkpt lat="48.44445" lon="2.07587">
        <ele>51.567871</ele>
        <time>2009-03-15T14:23:31Z</time>
      </trkpt>
      <trkpt lat="48.44438" lon="2.07586">
        <ele>51.087158</ele>
        <time>2009-03-15T14:23:38Z</time>
      </trkpt>
      <trkpt lat="48.44437" lon="2.07585">
        <ele>51.567871</ele>
        <time>2009-03-15T14:23:39Z</time>
      </trkpt>
      <trkpt lat="48.44428" lon="2.07584">
        <ele>51.567871</ele>
        <time>2009-03-15T14:23:43Z</time>
      </trkpt>
      <trkpt lat="48.44419" lon="2.07581">
        <ele>52.048584</ele>
        <time>2009-03-15T14:23:53Z</time>
      </trkpt>
      <trkpt lat="48.44408" lon="2.07577">
        <ele>52.048584</ele>
        <time>2009-03-15T14:24:03Z</time>
      </trkpt>
      <trkpt lat="48.44397" lon="2.07573">
        <ele>52.048584</ele>
        <time>2009-03-15T14:24:11Z</time>
      </trkpt>
      <trkpt lat="48.4439" lon="2.07568">
        <ele>52.048584</ele>
        <time>2009-03-15T14:24:17Z</time>
      </trkpt>
      <trkpt lat="48.44379" lon="2.07566">
        <ele>52.048584</ele>
        <time>2009-03-15T14:24:26Z</time>
      </trkpt>
      <trkpt lat="48.44375" lon="2.07566">
        <ele>52.048584</ele>
        <time>2009-03-15T14:24:29Z</time>
      </trkpt>
      <trkpt lat="48.44369" lon="2.07568">
        <ele>52.048584</ele>
        <time>2009-03-15T14:24:34Z</time>
      </trkpt>
      <trkpt lat="48.4436" lon="2.07562">
        <ele>52.048584</ele>
        <time>2009-03-15T14:24:40Z</time>
      </trkpt>
      <trkpt lat="48.4435" lon="2.07561">
        <ele>52.048584</ele>
        <time>2009-03-15T14:24:48Z</time>
      </trkpt>
      <trkpt lat="48.44342" lon="2.07562">
        <ele>52.048584</ele>
        <time>2009-03-15T14:24:56Z</time>
      </trkpt>
      <trkpt lat="48.44334" lon="2.0756">
        <ele>52.529175</ele>
        <time>2009-03-15T14:25:03Z</time>
      </trkpt>
      <trkpt lat="48.44322" lon="2.07558">
        <ele>52.529175</ele>
        <time>2009-03-15T14:25:11Z</time>
      </trkpt>
      <trkpt lat="48.44317" lon="2.07556">
        <ele>52.529175</ele>
        <time>2009-03-15T14:25:17Z</time>
      </trkpt>
      <trkpt lat="48.44308" lon="2.07554">
        <ele>52.529175</ele>
        <time>2009-03-15T14:25:25Z</time>
      </trkpt>
      <trkpt lat="48.44295" lon="2.07553">
        <ele>52.529175</ele>
        <time>2009-03-15T14:25:34Z</time>
      </trkpt>
      <trkpt lat="48.44285" lon="2.0755">
        <ele>53.009766</ele>
        <time>2009-03-15T14:25:42Z</time>
      </trkpt>
      <trkpt lat="48.44276" lon="2.07547">
        <ele>53.009766</ele>
        <time>2009-03-15T14:25:50Z</time>
      </trkpt>
      <trkpt lat="48.44268" lon="2.07548">
        <ele>53.009766</ele>
        <time>2009-03-15T14:25:57Z</time>
      </trkpt>
      <trkpt lat="48.44261" lon="2.07545">
        <ele>53.009766</ele>
        <time>2009-03-15T14:26:05Z</time>
      </trkpt>
      <trkpt lat="48.44254" lon="2.07542">
        <ele>53.009766</ele>
        <time>2009-03-15T14:26:10Z</time>
      </trkpt>
      <trkpt lat="48.44244" lon="2.07541">
        <ele>53.009766</ele>
        <time>2009-03-15T14:26:19Z</time>
      </trkpt>
      <trkpt lat="48.44236" lon="2.07539">
        <ele>53.009766</ele>
        <time>2009-03-15T14:26:27Z</time>
      </trkpt>
      <trkpt lat="48.44225" lon="2.07537">
        <ele>53.490479</ele>
        <time>2009-03-15T14:26:36Z</time>
      </trkpt>
      <trkpt lat="48.44216" lon="2.07534">
        <ele>53.490479</ele>
        <time>2009-03-15T14:26:44Z</time>
      </trkpt>
      <trkpt lat="48.44209" lon="2.07532">
        <ele>53.490479</ele>
        <time>2009-03-15T14:26:52Z</time>
      </trkpt>
      <trkpt lat="48.44198" lon="2.07529">
        <ele>53.490479</ele>
        <time>2009-03-15T14:27:00Z</time>
      </trkpt>
      <trkpt lat="48.44189" lon="2.07522">
        <ele>53.490479</ele>
        <time>2009-03-15T14:27:08Z</time>
      </trkpt>
      <trkpt lat="48.44184" lon="2.07519">
        <ele>53.009766</ele>
        <time>2009-03-15T14:27:12Z</time>
      </trkpt>
      <trkpt lat="48.44176" lon="2.07516">
        <ele>53.009766</ele>
        <time>2009-03-15T14:27:21Z</time>
      </trkpt>
      <trkpt lat="48.44165" lon="2.0751">
        <ele>53.490479</ele>
        <time>2009-03-15T14:27:30Z</time>
      </trkpt>
      <trkpt lat="48.44155" lon="2.07509">
        <ele>53.009766</ele>
        <time>2009-03-15T14:27:38Z</time>
      </trkpt>
      <trkpt lat="48.44144" lon="2.07509">
        <ele>53.009766</ele>
        <time>2009-03-15T14:27:46Z</time>
      </trkpt>
      <trkpt lat="48.44134" lon="2.0751">
        <ele>53.009766</ele>
        <time>2009-03-15T14:27:54Z</time>
      </trkpt>
      <trkpt lat="48.44124" lon="2.0751">
        <ele>52.529175</ele>
        <time>2009-03-15T14:28:01Z</time>
      </trkpt>
      <trkpt lat="48.44117" lon="2.07508">
        <ele>52.529175</ele>
        <time>2009-03-15T14:28:07Z</time>
      </trkpt>
      <trkpt lat="48.44109" lon="2.07508">
        <ele>53.009766</ele>
        <time>2009-03-15T14:28:14Z</time>
      </trkpt>
      <trkpt lat="48.441" lon="2.07504">
        <ele>53.009766</ele>
        <time>2009-03-15T14:28:22Z</time>
      </trkpt>
      <trkpt lat="48.44094" lon="2.07505">
        <ele>52.529175</ele>
        <time>2009-03-15T14:28:30Z</time>
      </trkpt>
      <trkpt lat="48.44081" lon="2.07502">
        <ele>53.009766</ele>
        <time>2009-03-15T14:28:40Z</time>
      </trkpt>
      <trkpt lat="48.4407" lon="2.07499">
        <ele>52.529175</ele>
        <time>2009-03-15T14:28:49Z</time>
      </trkpt>
      <trkpt lat="48.44061" lon="2.07495">
        <ele>52.529175</ele>
        <time>2009-03-15T14:28:56Z</time>
      </trkpt>
      <trkpt lat="48.44052" lon="2.07491">
        <ele>52.048584</ele>
        <time>2009-03-15T14:29:03Z</time>
      </trkpt>
      <trkpt lat="48.44042" lon="2.07491">
        <ele>52.048584</ele>
        <time>2009-03-15T14:29:11Z</time>
      </trkpt>
      <trkpt lat="48.44032" lon="2.07491">
        <ele>52.529175</ele>
        <time>2009-03-15T14:29:19Z</time>
      </trkpt>
      <trkpt lat="48.44024" lon="2.07493">
        <ele>52.048584</ele>
        <time>2009-03-15T14:29:28Z</time>
      </trkpt>
      <trkpt lat="48.44023" lon="2.07495">
        <ele>52.048584</ele>
        <time>2009-03-15T14:29:30Z</time>
      </trkpt>
      <trkpt lat="48.44019" lon="2.07493">
        <ele>51.567871</ele>
        <time>2009-03-15T14:29:35Z</time>
      </trkpt>
      <trkpt lat="48.44014" lon="2.07495">
        <ele>51.567871</ele>
        <time>2009-03-15T14:29:39Z</time>
      </trkpt>
      <trkpt lat="48.44015" lon="2.07508">
        <ele>51.567871</ele>
        <time>2009-03-15T14:29:47Z</time>
      </trkpt>
      <trkpt lat="48.44017" lon="2.07522">
        <ele>52.048584</ele>
        <time>2009-03-15T14:29:57Z</time>
      </trkpt>
      <trkpt lat="48.4402" lon="2.07528">
        <ele>52.048584</ele>
        <time>2009-03-15T14:30:02Z</time>
      </trkpt>
      <trkpt lat="48.4402" lon="2.07546">
        <ele>52.048584</ele>
        <time>2009-03-15T14:30:12Z</time>
      </trkpt>
      <trkpt lat="48.4402" lon="2.07564">
        <ele>51.567871</ele>
        <time>2009-03-15T14:30:21Z</time>
      </trkpt>
      <trkpt lat="48.44019" lon="2.07585">
        <ele>51.087158</ele>
        <time>2009-03-15T14:30:31Z</time>
      </trkpt>
      <trkpt lat="48.44019" lon="2.07601">
        <ele>51.567871</ele>
        <time>2009-03-15T14:30:40Z</time>
      </trkpt>
      <trkpt lat="48.44018" lon="2.07615">
        <ele>51.567871</ele>
        <time>2009-03-15T14:30:49Z</time>
      </trkpt>
      <trkpt lat="48.44011" lon="2.07625">
        <ele>51.567871</ele>
        <time>2009-03-15T14:30:58Z</time>
      </trkpt>
      <trkpt lat="48.43995" lon="2.07644">
        <ele>51.087158</ele>
        <time>2009-03-15T14:31:09Z</time>
      </trkpt>
      <trkpt lat="48.43994" lon="2.07645">
        <ele>51.567871</ele>
        <time>2009-03-15T14:31:10Z</time>
      </trkpt>
      <trkpt lat="48.43987" lon="2.07647">
        <ele>51.087158</ele>
        <time>2009-03-15T14:31:17Z</time>
      </trkpt>
      <trkpt lat="48.43981" lon="2.07654">
        <ele>51.087158</ele>
        <time>2009-03-15T14:31:21Z</time>
      </trkpt>
      <trkpt lat="48.43973" lon="2.07657">
        <ele>50.606567</ele>
        <time>2009-03-15T14:31:29Z</time>
      </trkpt>
      <trkpt lat="48.43972" lon="2.07658">
        <ele>51.087158</ele>
        <time>2009-03-15T14:31:30Z</time>
      </trkpt>
      <trkpt lat="48.43967" lon="2.07666">
        <ele>50.606567</ele>
        <time>2009-03-15T14:31:35Z</time>
      </trkpt>
      <trkpt lat="48.43961" lon="2.07673">
        <ele>50.606567</ele>
        <time>2009-03-15T14:31:43Z</time>
      </trkpt>
      <trkpt lat="48.4396" lon="2.07675">
        <ele>50.606567</ele>
        <time>2009-03-15T14:31:45Z</time>
      </trkpt>
      <trkpt lat="48.43953" lon="2.07683">
        <ele>50.606567</ele>
        <time>2009-03-15T14:31:53Z</time>
      </trkpt>
      <trkpt lat="48.43952" lon="2.07683">
        <ele>50.606567</ele>
        <time>2009-03-15T14:31:54Z</time>
      </trkpt>
      <trkpt lat="48.43943" lon="2.07691">
        <ele>50.125977</ele>
        <time>2009-03-15T14:32:03Z</time>
      </trkpt>
      <trkpt lat="48.43931" lon="2.07695">
        <ele>50.125977</ele>
        <time>2009-03-15T14:32:13Z</time>
      </trkpt>
      <trkpt lat="48.43918" lon="2.07703">
        <ele>50.125977</ele>
        <time>2009-03-15T14:32:23Z</time>
      </trkpt>
      <trkpt lat="48.4391" lon="2.07712">
        <ele>49.645264</ele>
        <time>2009-03-15T14:32:30Z</time>
      </trkpt>
      <trkpt lat="48.439" lon="2.07712">
        <ele>49.164551</ele>
        <time>2009-03-15T14:32:39Z</time>
      </trkpt>
      <trkpt lat="48.43889" lon="2.07715">
        <ele>49.164551</ele>
        <time>2009-03-15T14:32:47Z</time>
      </trkpt>
      <trkpt lat="48.43881" lon="2.07727">
        <ele>49.164551</ele>
        <time>2009-03-15T14:32:55Z</time>
      </trkpt>
      <trkpt lat="48.43873" lon="2.07733">
        <ele>48.68396</ele>
        <time>2009-03-15T14:33:02Z</time>
      </trkpt>
      <trkpt lat="48.43862" lon="2.07736">
        <ele>48.203369</ele>
        <time>2009-03-15T14:33:10Z</time>
      </trkpt>
      <trkpt lat="48.43858" lon="2.07732">
        <ele>48.203369</ele>
        <time>2009-03-15T14:33:12Z</time>
      </trkpt>
      <trkpt lat="48.43851" lon="2.07738">
        <ele>48.203369</ele>
        <time>2009-03-15T14:33:19Z</time>
      </trkpt>
      <trkpt lat="48.43844" lon="2.07745">
        <ele>48.203369</ele>
        <time>2009-03-15T14:33:25Z</time>
      </trkpt>
      <trkpt lat="48.43843" lon="2.07747">
        <ele>48.203369</ele>
        <time>2009-03-15T14:33:26Z</time>
      </trkpt>
      <trkpt lat="48.43835" lon="2.07756">
        <ele>47.241821</ele>
        <time>2009-03-15T14:33:35Z</time>
      </trkpt>
      <trkpt lat="48.43826" lon="2.07764">
        <ele>46.76123</ele>
        <time>2009-03-15T14:33:43Z</time>
      </trkpt>
      <trkpt lat="48.43821" lon="2.07772">
        <ele>46.76123</ele>
        <time>2009-03-15T14:33:48Z</time>
      </trkpt>
      <trkpt lat="48.43819" lon="2.07795">
        <ele>46.28064</ele>
        <time>2009-03-15T14:33:53Z</time>
      </trkpt>
      <trkpt lat="48.43812" lon="2.07796">
        <ele>45.799927</ele>
        <time>2009-03-15T14:34:01Z</time>
      </trkpt>
      <trkpt lat="48.43807" lon="2.078">
        <ele>44.838623</ele>
        <time>2009-03-15T14:34:07Z</time>
      </trkpt>
      <trkpt lat="48.43804" lon="2.07809">
        <ele>45.319214</ele>
        <time>2009-03-15T14:34:09Z</time>
      </trkpt>
      <trkpt lat="48.43801" lon="2.07823">
        <ele>43.877319</ele>
        <time>2009-03-15T14:34:16Z</time>
      </trkpt>
      <trkpt lat="48.43795" lon="2.07831">
        <ele>43.396606</ele>
        <time>2009-03-15T14:34:23Z</time>
      </trkpt>
      <trkpt lat="48.43789" lon="2.07834">
        <ele>41.954712</ele>
        <time>2009-03-15T14:34:31Z</time>
      </trkpt>
      <trkpt lat="48.43783" lon="2.07844">
        <ele>40.032104</ele>
        <time>2009-03-15T14:34:41Z</time>
      </trkpt>
      <trkpt lat="48.43776" lon="2.0785">
        <ele>38.590088</ele>
        <time>2009-03-15T14:34:49Z</time>
      </trkpt>
      <trkpt lat="48.43765" lon="2.07852">
        <ele>36.66748</ele>
        <time>2009-03-15T14:35:00Z</time>
      </trkpt>
      <trkpt lat="48.43755" lon="2.07853">
        <ele>35.225464</ele>
        <time>2009-03-15T14:35:09Z</time>
      </trkpt>
      <trkpt lat="48.43746" lon="2.07857">
        <ele>34.26416</ele>
        <time>2009-03-15T14:35:17Z</time>
      </trkpt>
      <trkpt lat="48.43736" lon="2.07853">
        <ele>32.341553</ele>
        <time>2009-03-15T14:35:26Z</time>
      </trkpt>
      <trkpt lat="48.43731" lon="2.07852">
        <ele>31.380127</ele>
        <time>2009-03-15T14:35:30Z</time>
      </trkpt>
      <trkpt lat="48.43729" lon="2.07852">
        <ele>30.899536</ele>
        <time>2009-03-15T14:35:32Z</time>
      </trkpt>
      <trkpt lat="48.43722" lon="2.07847">
        <ele>30.418823</ele>
        <time>2009-03-15T14:35:39Z</time>
      </trkpt>
      <trkpt lat="48.43713" lon="2.07845">
        <ele>28.496216</ele>
        <time>2009-03-15T14:35:47Z</time>
      </trkpt>
      <trkpt lat="48.43706" lon="2.07839">
        <ele>27.534912</ele>
        <time>2009-03-15T14:35:54Z</time>
      </trkpt>
      <trkpt lat="48.43699" lon="2.07835">
        <ele>26.573608</ele>
        <time>2009-03-15T14:36:02Z</time>
      </trkpt>
      <trkpt lat="48.43693" lon="2.07832">
        <ele>25.612305</ele>
        <time>2009-03-15T14:36:09Z</time>
      </trkpt>
      <trkpt lat="48.43682" lon="2.07827">
        <ele>23.689575</ele>
        <time>2009-03-15T14:36:18Z</time>
      </trkpt>
      <trkpt lat="48.43673" lon="2.07823">
        <ele>22.728271</ele>
        <time>2009-03-15T14:36:27Z</time>
      </trkpt>
      <trkpt lat="48.43661" lon="2.07815">
        <ele>21.766968</ele>
        <time>2009-03-15T14:36:36Z</time>
      </trkpt>
      <trkpt lat="48.4365" lon="2.07814">
        <ele>20.805664</ele>
        <time>2009-03-15T14:36:46Z</time>
      </trkpt>
      <trkpt lat="48.43644" lon="2.07813">
        <ele>19.36377</ele>
        <time>2009-03-15T14:36:51Z</time>
      </trkpt>
      <trkpt lat="48.43635" lon="2.07811">
        <ele>17.441162</ele>
        <time>2009-03-15T14:37:00Z</time>
      </trkpt>
      <trkpt lat="48.43625" lon="2.07806">
        <ele>15.999023</ele>
        <time>2009-03-15T14:37:10Z</time>
      </trkpt>
      <trkpt lat="48.43617" lon="2.07804">
        <ele>15.03772</ele>
        <time>2009-03-15T14:37:17Z</time>
      </trkpt>
      <trkpt lat="48.43605" lon="2.07804">
        <ele>13.595825</ele>
        <time>2009-03-15T14:37:29Z</time>
      </trkpt>
      <trkpt lat="48.43594" lon="2.078">
        <ele>12.634399</ele>
        <time>2009-03-15T14:37:39Z</time>
      </trkpt>
      <trkpt lat="48.43586" lon="2.07799">
        <ele>11.192505</ele>
        <time>2009-03-15T14:37:46Z</time>
      </trkpt>
      <trkpt lat="48.4358" lon="2.07797">
        <ele>9.75061</ele>
        <time>2009-03-15T14:37:52Z</time>
      </trkpt>
      <trkpt lat="48.4357" lon="2.07796">
        <ele>8.308594</ele>
        <time>2009-03-15T14:38:00Z</time>
      </trkpt>
      <trkpt lat="48.43561" lon="2.07792">
        <ele>7.347168</ele>
        <time>2009-03-15T14:38:09Z</time>
      </trkpt>
      <trkpt lat="48.43552" lon="2.07788">
        <ele>5.905273</ele>
        <time>2009-03-15T14:38:16Z</time>
      </trkpt>
      <trkpt lat="48.43542" lon="2.07786">
        <ele>4.943848</ele>
        <time>2009-03-15T14:38:24Z</time>
      </trkpt>
      <trkpt lat="48.43532" lon="2.07782">
        <ele>4.463257</ele>
        <time>2009-03-15T14:38:32Z</time>
      </trkpt>
      <trkpt lat="48.43529" lon="2.07777">
        <ele>3.982666</ele>
        <time>2009-03-15T14:38:37Z</time>
      </trkpt>
      <trkpt lat="48.43526" lon="2.07775">
        <ele>3.982666</ele>
        <time>2009-03-15T14:38:41Z</time>
      </trkpt>
      <trkpt lat="48.43518" lon="2.07767">
        <ele>3.02124</ele>
        <time>2009-03-15T14:38:50Z</time>
      </trkpt>
      <trkpt lat="48.4351" lon="2.07759">
        <ele>2.540649</ele>
        <time>2009-03-15T14:38:59Z</time>
      </trkpt>
      <trkpt lat="48.43501" lon="2.07753">
        <ele>1.579346</ele>
        <time>2009-03-15T14:39:06Z</time>
      </trkpt>
      <trkpt lat="48.43496" lon="2.07747">
        <ele>-0.343384</ele>
        <time>2009-03-15T14:39:13Z</time>
      </trkpt>
      <trkpt lat="48.43495" lon="2.07747">
        <ele>-0.343384</ele>
        <time>2009-03-15T14:39:14Z</time>
      </trkpt>
      <trkpt lat="48.43484" lon="2.07739">
        <ele>-0.824097</ele>
        <time>2009-03-15T14:39:24Z</time>
      </trkpt>
      <trkpt lat="48.43473" lon="2.07732">
        <ele>-1.785278</ele>
        <time>2009-03-15T14:39:33Z</time>
      </trkpt>
      <trkpt lat="48.43466" lon="2.07724">
        <ele>-2.265991</ele>
        <time>2009-03-15T14:39:41Z</time>
      </trkpt>
      <trkpt lat="48.43457" lon="2.07723">
        <ele>-3.707886</ele>
        <time>2009-03-15T14:39:51Z</time>
      </trkpt>
      <trkpt lat="48.43451" lon="2.07723">
        <ele>-4.188599</ele>
        <time>2009-03-15T14:39:56Z</time>
      </trkpt>
      <trkpt lat="48.43441" lon="2.07722">
        <ele>-5.149902</ele>
        <time>2009-03-15T14:40:06Z</time>
      </trkpt>
      <trkpt lat="48.43433" lon="2.07718">
        <ele>-5.630493</ele>
        <time>2009-03-15T14:40:14Z</time>
      </trkpt>
      <trkpt lat="48.43426" lon="2.07716">
        <ele>-6.111206</ele>
        <time>2009-03-15T14:40:19Z</time>
      </trkpt>
      <trkpt lat="48.43418" lon="2.0772">
        <ele>-6.591919</ele>
        <time>2009-03-15T14:40:25Z</time>
      </trkpt>
      <trkpt lat="48.43413" lon="2.07725">
        <ele>-6.591919</ele>
        <time>2009-03-15T14:40:31Z</time>
      </trkpt>
      <trkpt lat="48.43402" lon="2.07732">
        <ele>-7.07251</ele>
        <time>2009-03-15T14:40:41Z</time>
      </trkpt>
      <trkpt lat="48.43392" lon="2.07731">
        <ele>-6.591919</ele>
        <time>2009-03-15T14:40:49Z</time>
      </trkpt>
      <trkpt lat="48.43386" lon="2.07719">
        <ele>-7.07251</ele>
        <time>2009-03-15T14:40:57Z</time>
      </trkpt>
      <trkpt lat="48.43382" lon="2.07712">
        <ele>-7.553101</ele>
        <time>2009-03-15T14:41:03Z</time>
      </trkpt>
      <trkpt lat="48.43376" lon="2.07703">
        <ele>-8.033936</ele>
        <time>2009-03-15T14:41:11Z</time>
      </trkpt>
      <trkpt lat="48.43373" lon="2.07693">
        <ele>-8.033936</ele>
        <time>2009-03-15T14:41:18Z</time>
      </trkpt>
      <trkpt lat="48.4337" lon="2.07685">
        <ele>-8.514648</ele>
        <time>2009-03-15T14:41:25Z</time>
      </trkpt>
      <trkpt lat="48.43367" lon="2.07673">
        <ele>-8.995239</ele>
        <time>2009-03-15T14:41:34Z</time>
      </trkpt>
      <trkpt lat="48.43363" lon="2.07659">
        <ele>-8.995239</ele>
        <time>2009-03-15T14:41:44Z</time>
      </trkpt>
      <trkpt lat="48.43359" lon="2.07642">
        <ele>-9.956543</ele>
        <time>2009-03-15T14:41:54Z</time>
      </trkpt>
      <trkpt lat="48.43355" lon="2.07628">
        <ele>-9.956543</ele>
        <time>2009-03-15T14:42:02Z</time>
      </trkpt>
      <trkpt lat="48.43348" lon="2.07612">
        <ele>-10.437256</ele>
        <time>2009-03-15T14:42:10Z</time>
      </trkpt>
      <trkpt lat="48.43345" lon="2.07601">
        <ele>-10.437256</ele>
        <time>2009-03-15T14:42:17Z</time>
      </trkpt>
      <trkpt lat="48.43343" lon="2.0759">
        <ele>-9.956543</ele>
        <time>2009-03-15T14:42:23Z</time>
      </trkpt>
      <trkpt lat="48.43341" lon="2.07583">
        <ele>-9.956543</ele>
        <time>2009-03-15T14:42:29Z</time>
      </trkpt>
    </trkseg>
  </trk>
</gpx>